createdAt,value
2019-05-06T00:00:13.963Z,99.90
2019-05-06T00:02:17.758Z,99.90
2019-05-06T00:04:21.405Z,99.90
2019-05-06T00:06:24.874Z,99.90
2019-05-06T00:08:28.417Z,99.90
2019-05-06T00:10:35.189Z,99.90
2019-05-06T00:12:38.799Z,99.90
2019-05-06T00:14:43.636Z,99.90
2019-05-06T00:16:48.129Z,99.90
2019-05-06T00:18:53.836Z,99.90
2019-05-06T00:20:57.606Z,99.90
2019-05-06T00:23:14.059Z,99.90
2019-05-06T00:25:34.860Z,99.90
2019-05-06T00:27:40.092Z,99.90
2019-05-06T00:29:46.695Z,99.90
2019-05-06T00:31:49.109Z,99.90
2019-05-06T00:33:54.053Z,99.90
2019-05-06T00:36:00.483Z,99.90
2019-05-06T00:38:04.465Z,99.90
2019-05-06T00:40:14.130Z,99.90
2019-05-06T00:42:21.761Z,99.90
2019-05-06T00:44:25.288Z,99.90
2019-05-06T00:46:28.821Z,99.90
2019-05-06T00:48:34.096Z,99.90
2019-05-06T00:50:39.421Z,99.90
2019-05-06T00:52:44.712Z,99.90
2019-05-06T00:54:48.830Z,99.90
2019-05-06T00:56:54.089Z,99.90
2019-05-06T00:58:57.772Z,99.90
2019-05-06T01:01:01.309Z,99.90
2019-05-06T01:03:05.754Z,99.90
2019-05-06T01:05:09.525Z,99.90
2019-05-06T01:07:14.015Z,99.90
2019-05-06T01:09:19.237Z,99.90
2019-05-06T01:11:23.889Z,99.90
2019-05-06T01:13:38.089Z,99.90
2019-05-06T01:15:43.937Z,99.90
2019-05-06T01:17:47.544Z,99.90
2019-05-06T01:19:51.104Z,99.90
2019-05-06T01:21:55.709Z,99.90
2019-05-06T01:23:59.537Z,99.90
2019-05-06T01:26:04.198Z,99.90
2019-05-06T01:28:07.893Z,99.90
2019-05-06T01:30:13.738Z,99.90
2019-05-06T01:32:17.229Z,99.90
2019-05-06T01:34:20.764Z,99.90
2019-05-06T01:36:24.963Z,99.90
2019-05-06T01:38:33.927Z,99.90
2019-05-06T01:40:39.312Z,99.90
2019-05-06T01:42:47.681Z,99.90
2019-05-06T01:44:51.225Z,99.90
2019-05-06T01:46:55.010Z,99.90
2019-05-06T01:48:58.641Z,99.90
2019-05-06T01:51:03.521Z,99.90
2019-05-06T01:53:07.144Z,99.90
2019-05-06T01:55:14.243Z,99.90
2019-05-06T01:57:17.860Z,99.90
2019-05-06T01:59:21.429Z,99.90
2019-05-06T02:01:25.545Z,99.90
2019-05-06T02:03:29.086Z,99.90
2019-05-06T02:05:33.683Z,99.90
2019-05-06T02:07:37.397Z,99.90
2019-05-06T02:09:40.859Z,99.90
2019-05-06T02:11:47.653Z,99.90
2019-05-06T02:13:49.782Z,99.90
2019-05-06T02:15:54.731Z,99.90
2019-05-06T02:17:58.672Z,99.90
2019-05-06T02:20:04.178Z,99.90
2019-05-06T02:22:10.352Z,99.90
2019-05-06T02:24:24.758Z,99.90
2019-05-06T02:26:28.630Z,99.90
2019-05-06T02:28:34.367Z,99.90
2019-05-06T02:30:48.315Z,99.90
2019-05-06T02:32:59.514Z,99.90
2019-05-06T02:35:08.371Z,99.90
2019-05-06T02:37:14.724Z,99.90
2019-05-06T02:39:18.540Z,99.90
2019-05-06T02:41:23.229Z,99.90
2019-05-06T02:43:26.975Z,99.90
2019-05-06T02:45:33.192Z,99.90
2019-05-06T02:47:53.968Z,99.90
2019-05-06T02:50:05.651Z,99.90
2019-05-06T02:52:09.184Z,99.90
2019-05-06T02:54:13.511Z,99.90
2019-05-06T02:56:17.542Z,99.90
2019-05-06T02:58:23.608Z,99.90
2019-05-06T03:00:26.261Z,99.90
2019-05-06T03:02:39.949Z,99.90
2019-05-06T03:04:35.926Z,99.90
2019-05-06T03:06:39.621Z,99.90
2019-05-06T03:08:43.752Z,99.90
2019-05-06T03:10:47.416Z,99.90
2019-05-06T03:12:53.741Z,99.90
2019-05-06T03:14:56.446Z,99.90
2019-05-06T03:17:03.281Z,99.90
2019-05-06T03:19:05.486Z,99.90
2019-05-06T03:21:13.787Z,99.90
2019-05-06T03:23:17.837Z,99.90
2019-05-06T03:25:24.043Z,99.90
2019-05-06T03:27:28.117Z,99.90
2019-05-06T03:29:33.373Z,99.90
2019-05-06T03:31:37.158Z,99.90
2019-05-06T03:33:58.496Z,99.90
2019-05-06T03:36:00.749Z,99.90
2019-05-06T03:37:53.352Z,99.90
2019-05-06T03:39:57.094Z,99.90
2019-05-06T03:42:00.645Z,99.90
2019-05-06T03:44:04.598Z,99.90
2019-05-06T03:46:18.311Z,99.90
2019-05-06T03:48:35.638Z,99.90
2019-05-06T03:50:39.189Z,99.90
2019-05-06T03:52:44.251Z,99.90
2019-05-06T03:54:48.301Z,99.90
2019-05-06T03:56:53.808Z,99.90
2019-05-06T03:58:59.005Z,99.90
2019-05-06T04:01:03.788Z,99.90
2019-05-06T04:03:07.689Z,99.90
2019-05-06T04:05:13.253Z,99.90
2019-05-06T04:07:18.034Z,99.90
2019-05-06T04:09:23.991Z,99.90
2019-05-06T04:11:27.443Z,99.90
2019-05-06T04:13:33.355Z,99.90
2019-05-06T04:15:48.331Z,99.90
2019-05-06T04:17:59.690Z,99.90
2019-05-06T04:20:05.512Z,99.90
2019-05-06T04:22:26.858Z,99.90
2019-05-06T04:24:37.880Z,99.90
2019-05-06T04:26:46.407Z,99.90
2019-05-06T04:28:53.232Z,99.90
2019-05-06T04:30:55.580Z,99.90
2019-05-06T04:32:59.281Z,99.90
2019-05-06T04:35:04.421Z,99.90
2019-05-06T04:37:08.727Z,99.90
2019-05-06T04:39:13.271Z,99.90
2019-05-06T04:41:17.105Z,99.90
2019-05-06T04:43:26.299Z,99.90
2019-05-06T04:45:25.938Z,99.90
2019-05-06T04:47:32.620Z,99.90
2019-05-06T04:49:35.426Z,99.90
2019-05-06T04:51:38.885Z,99.90
2019-05-06T04:53:44.052Z,99.90
2019-05-06T04:55:48.457Z,99.90
2019-05-06T04:57:53.611Z,99.90
2019-05-06T04:59:57.735Z,99.90
2019-05-06T05:02:02.670Z,99.90
2019-05-06T05:04:23.022Z,99.90
2019-05-06T05:06:13.619Z,99.90
2019-05-06T05:08:17.521Z,99.90
2019-05-06T05:10:23.251Z,99.90
2019-05-06T05:12:33.592Z,99.90
2019-05-06T05:14:38.704Z,99.90
2019-05-06T05:16:44.045Z,99.90
2019-05-06T05:18:49.272Z,99.90
2019-05-06T05:20:53.769Z,99.90
2019-05-06T05:22:59.477Z,99.90
2019-05-06T05:25:03.667Z,99.90
2019-05-06T05:27:07.482Z,99.90
2019-05-06T05:29:12.347Z,99.90
2019-05-06T05:31:16.438Z,99.90
2019-05-06T05:33:22.346Z,99.90
2019-05-06T05:35:25.926Z,99.90
2019-05-06T05:37:29.450Z,99.90
2019-05-06T05:39:33.444Z,99.90
2019-05-06T05:41:37.626Z,99.90
2019-05-06T05:43:43.172Z,99.90
2019-05-06T05:45:47.650Z,99.90
2019-05-06T05:47:52.627Z,99.90
2019-05-06T05:50:09.692Z,99.90
2019-05-06T05:52:14.294Z,99.90
2019-05-06T05:54:18.393Z,99.90
2019-05-06T05:56:23.957Z,99.90
2019-05-06T05:58:27.642Z,99.90
2019-05-06T06:00:33.000Z,99.90
2019-05-06T06:02:36.531Z,99.90
2019-05-06T06:04:53.452Z,99.90
2019-05-06T06:06:45.768Z,99.90
2019-05-06T06:08:52.102Z,99.90
2019-05-06T06:10:56.749Z,99.90
2019-05-06T06:13:02.156Z,99.90
2019-05-06T06:15:09.698Z,99.90
2019-05-06T06:17:32.562Z,99.90
2019-05-06T06:19:37.877Z,99.90
2019-05-06T06:21:46.471Z,99.10
2019-05-06T06:23:52.872Z,95.40
2019-05-06T06:25:57.990Z,96.90
2019-05-06T06:28:02.670Z,97.70
2019-05-06T06:30:07.224Z,97.90
2019-05-06T06:32:23.045Z,96.60
2019-05-06T06:34:37.796Z,97.10
2019-05-06T06:36:48.897Z,94.10
2019-05-06T06:38:54.248Z,94.50
2019-05-06T06:40:58.005Z,97.90
2019-05-06T06:43:03.285Z,95.30
2019-05-06T06:45:09.061Z,93.00
2019-05-06T06:47:13.116Z,91.00
2019-05-06T06:49:16.761Z,92.80
2019-05-06T06:51:20.230Z,91.80
2019-05-06T06:53:24.210Z,92.50
2019-05-06T06:55:27.705Z,95.20
2019-05-06T06:57:49.120Z,95.40
2019-05-06T06:59:55.195Z,93.30
2019-05-06T07:02:03.765Z,90.70
2019-05-06T07:04:11.225Z,90.30
2019-05-06T07:06:15.868Z,91.80
2019-05-06T07:08:32.125Z,91.60
2019-05-06T07:10:43.257Z,92.70
2019-05-06T07:12:46.820Z,88.70
2019-05-06T07:14:52.350Z,90.60
2019-05-06T07:16:57.396Z,84.10
2019-05-06T07:19:02.982Z,91.00
2019-05-06T07:21:08.983Z,84.00
2019-05-06T07:23:29.505Z,79.40
2019-05-06T07:25:33.699Z,83.20
2019-05-06T07:27:37.945Z,88.10
2019-05-06T07:29:48.130Z,85.60
2019-05-06T07:31:47.177Z,87.60
2019-05-06T07:33:52.249Z,82.90
2019-05-06T07:35:56.826Z,88.50
2019-05-06T07:38:02.376Z,85.40
2019-05-06T07:40:08.458Z,86.60
2019-05-06T07:42:16.173Z,90.90
2019-05-06T07:44:24.755Z,83.40
2019-05-06T07:46:30.246Z,78.10
2019-05-06T07:48:33.706Z,79.50
2019-05-06T07:50:37.157Z,78.20
2019-05-06T07:52:42.574Z,78.40
2019-05-06T07:54:46.111Z,77.30
2019-05-06T07:56:52.712Z,78.40
2019-05-06T07:59:07.909Z,74.50
2019-05-06T08:01:13.613Z,75.80
2019-05-06T08:03:17.020Z,76.40
2019-05-06T08:05:22.443Z,77.20
2019-05-06T08:07:25.733Z,79.40
2019-05-06T08:09:29.197Z,77.80
2019-05-06T08:11:32.950Z,74.90
2019-05-06T08:13:36.573Z,76.70
2019-05-06T08:15:42.094Z,73.10
2019-05-06T08:17:45.641Z,73.30
2019-05-06T08:19:49.442Z,72.90
2019-05-06T08:21:54.661Z,75.70
2019-05-06T08:23:58.514Z,75.30
2019-05-06T08:26:10.080Z,69.30
2019-05-06T08:28:07.520Z,69.50
2019-05-06T08:30:12.883Z,72.70
2019-05-06T08:32:16.693Z,68.60
2019-05-06T08:34:22.481Z,70.90
2019-05-06T08:36:42.739Z,70.90
2019-05-06T08:39:02.900Z,68.20
2019-05-06T08:41:06.708Z,69.20
2019-05-06T08:43:12.904Z,68.10
2019-05-06T08:45:16.117Z,66.60
2019-05-06T08:47:22.356Z,66.70
2019-05-06T08:49:26.377Z,64.00
2019-05-06T08:51:47.100Z,65.60
2019-05-06T08:53:55.520Z,64.10
2019-05-06T08:56:03.176Z,63.10
2019-05-06T08:58:07.118Z,63.10
2019-05-06T09:00:12.796Z,65.20
2019-05-06T09:02:16.862Z,62.90
2019-05-06T09:04:22.803Z,63.10
2019-05-06T09:06:30.276Z,65.80
2019-05-06T09:08:32.421Z,66.40
2019-05-06T09:10:36.122Z,61.60
2019-05-06T09:12:39.588Z,64.00
2019-05-06T09:14:43.245Z,63.80
2019-05-06T09:16:50.499Z,63.20
2019-05-06T09:18:53.380Z,65.90
2019-05-06T09:20:57.121Z,68.70
2019-05-06T09:23:04.206Z,64.20
2019-05-06T09:25:06.713Z,64.50
2019-05-06T09:27:12.304Z,64.00
2019-05-06T09:29:17.863Z,64.10
2019-05-06T09:31:26.274Z,68.10
2019-05-06T09:33:33.129Z,65.20
2019-05-06T09:35:36.666Z,66.50
2019-05-06T09:37:42.923Z,64.00
2019-05-06T09:39:46.782Z,64.80
2019-05-06T09:41:57.808Z,63.20
2019-05-06T09:43:58.497Z,64.70
2019-05-06T09:46:02.434Z,64.70
2019-05-06T09:48:07.955Z,66.60
2019-05-06T09:50:14.391Z,65.10
2019-05-06T09:52:18.274Z,65.10
2019-05-06T09:54:23.767Z,64.70
2019-05-06T09:56:29.417Z,66.20
2019-05-06T09:58:35.031Z,63.60
2019-05-06T10:00:42.727Z,62.50
2019-05-06T10:02:49.420Z,63.60
2019-05-06T10:04:52.267Z,62.00
2019-05-06T10:06:59.946Z,63.00
2019-05-06T10:09:04.674Z,60.50
2019-05-06T10:11:07.010Z,59.40
2019-05-06T10:13:12.859Z,60.60
2019-05-06T10:15:17.324Z,59.80
2019-05-06T10:17:20.934Z,59.40
2019-05-06T10:19:24.817Z,60.90
2019-05-06T10:21:28.669Z,59.30
2019-05-06T10:23:32.798Z,61.70
2019-05-06T10:25:36.858Z,62.70
2019-05-06T10:27:42.425Z,58.70
2019-05-06T10:29:47.965Z,56.50
2019-05-06T10:31:59.444Z,57.70
2019-05-06T10:34:07.581Z,55.80
2019-05-06T10:36:12.983Z,58.40
2019-05-06T10:38:39.513Z,58.90
2019-05-06T10:40:59.738Z,59.10
2019-05-06T10:43:05.869Z,58.00
2019-05-06T10:45:27.777Z,57.10
2019-05-06T10:47:32.953Z,57.40
2019-05-06T10:49:36.865Z,60.70
2019-05-06T10:51:54.397Z,58.20
2019-05-06T10:53:58.709Z,57.80
2019-05-06T10:56:18.953Z,59.50
2019-05-06T10:58:23.131Z,58.60
2019-05-06T11:00:26.646Z,59.30
2019-05-06T11:02:47.393Z,61.30
2019-05-06T11:04:52.997Z,60.00
2019-05-06T11:06:56.133Z,61.60
2019-05-06T11:09:00.006Z,63.50
2019-05-06T11:11:14.962Z,60.50
2019-05-06T11:13:09.075Z,60.70
2019-05-06T11:15:13.175Z,60.50
2019-05-06T11:17:16.786Z,57.70
2019-05-06T11:19:22.289Z,56.00
2019-05-06T11:21:25.914Z,58.10
2019-05-06T11:23:29.717Z,57.80
2019-05-06T11:25:33.702Z,57.00
2019-05-06T11:27:41.197Z,58.10
2019-05-06T11:29:44.010Z,56.80
2019-05-06T11:32:05.385Z,56.40
2019-05-06T11:34:13.390Z,57.10
2019-05-06T11:36:18.826Z,57.80
2019-05-06T11:38:22.879Z,56.20
2019-05-06T11:40:26.887Z,54.40
2019-05-06T11:42:35.071Z,56.70
2019-05-06T11:44:36.157Z,56.20
2019-05-06T11:46:39.997Z,55.50
2019-05-06T11:48:44.430Z,56.70
2019-05-06T11:50:49.629Z,56.10
2019-05-06T11:52:55.888Z,54.30
2019-05-06T11:54:58.805Z,54.00
2019-05-06T11:57:03.622Z,54.80
2019-05-06T11:59:07.425Z,53.80
2019-05-06T12:01:21.686Z,53.30
2019-05-06T12:03:25.157Z,50.60
2019-05-06T12:05:32.901Z,50.40
2019-05-06T12:07:37.241Z,50.80
2019-05-06T12:09:41.657Z,51.80
2019-05-06T12:11:45.266Z,52.20
2019-05-06T12:13:48.737Z,53.00
2019-05-06T12:15:53.257Z,52.70
2019-05-06T12:17:57.254Z,49.20
2019-05-06T12:20:02.970Z,50.50
2019-05-06T12:22:05.937Z,51.30
2019-05-06T12:24:09.504Z,52.00
2019-05-06T12:26:13.369Z,49.50
2019-05-06T12:28:17.649Z,49.80
2019-05-06T12:30:23.417Z,50.10
2019-05-06T12:32:28.566Z,51.50
2019-05-06T12:34:32.426Z,51.30
2019-05-06T12:36:36.037Z,50.90
2019-05-06T12:38:43.144Z,49.80
2019-05-06T12:40:46.405Z,48.60
2019-05-06T12:42:53.483Z,49.20
2019-05-06T12:44:58.484Z,47.80
2019-05-06T12:47:19.959Z,48.50
2019-05-06T12:49:23.937Z,48.70
2019-05-06T12:51:27.854Z,49.00
2019-05-06T12:53:32.766Z,47.40
2019-05-06T12:55:36.641Z,45.90
2019-05-06T12:57:43.012Z,44.00
2019-05-06T12:59:45.756Z,44.80
2019-05-06T13:01:53.772Z,44.10
2019-05-06T13:03:55.732Z,45.60
2019-05-06T13:05:59.274Z,47.00
2019-05-06T13:08:05.717Z,47.60
2019-05-06T13:10:09.118Z,47.80
2019-05-06T13:12:14.670Z,47.60
2019-05-06T13:14:18.218Z,47.40
2019-05-06T13:16:24.861Z,48.00
2019-05-06T13:18:28.441Z,47.20
2019-05-06T13:20:36.253Z,46.90
2019-05-06T13:22:41.761Z,47.00
2019-05-06T13:24:45.237Z,47.10
2019-05-06T13:26:49.662Z,47.40
2019-05-06T13:28:54.842Z,47.20
2019-05-06T13:31:13.556Z,45.50
2019-05-06T13:33:14.044Z,46.10
2019-05-06T13:35:18.206Z,47.40
2019-05-06T13:37:22.847Z,47.40
2019-05-06T13:39:26.591Z,47.00
2019-05-06T13:41:32.546Z,47.10
2019-05-06T13:43:40.065Z,48.00
2019-05-06T13:45:48.247Z,47.50
2019-05-06T13:47:53.443Z,48.40
2019-05-06T13:49:58.841Z,49.80
2019-05-06T13:52:04.738Z,47.30
2019-05-06T13:54:08.468Z,47.80
2019-05-06T13:56:12.118Z,46.80
2019-05-06T13:58:16.129Z,48.40
2019-05-06T14:00:19.809Z,49.10
2019-05-06T14:02:37.304Z,49.70
2019-05-06T14:04:44.234Z,49.10
2019-05-06T14:06:46.381Z,48.20
2019-05-06T14:08:50.439Z,48.30
2019-05-06T14:10:59.683Z,47.80
2019-05-06T14:13:02.484Z,48.90
2019-05-06T14:15:07.814Z,49.20
2019-05-06T14:17:12.795Z,49.90
2019-05-06T14:19:17.295Z,51.10
2019-05-06T14:21:22.861Z,50.90
2019-05-06T14:23:26.557Z,51.30
2019-05-06T14:25:44.448Z,50.70
2019-05-06T14:27:49.794Z,50.50
2019-05-06T14:30:04.507Z,51.00
2019-05-06T14:32:06.918Z,51.40
2019-05-06T14:34:11.946Z,50.40
2019-05-06T14:36:16.189Z,51.20
2019-05-06T14:38:19.730Z,51.90
2019-05-06T14:40:24.958Z,53.00
2019-05-06T14:42:28.523Z,52.80
2019-05-06T14:44:32.754Z,51.90
2019-05-06T14:46:53.218Z,52.10
2019-05-06T14:48:56.833Z,52.30
2019-05-06T14:51:02.238Z,51.40
2019-05-06T14:53:06.070Z,53.10
2019-05-06T14:55:12.619Z,52.90
2019-05-06T14:57:19.865Z,52.70
2019-05-06T14:59:23.605Z,52.20
2019-05-06T15:01:28.075Z,52.20
2019-05-06T15:03:32.585Z,52.80
2019-05-06T15:05:36.816Z,51.50
2019-05-06T15:07:42.129Z,51.40
2019-05-06T15:10:02.123Z,52.00
2019-05-06T15:11:52.584Z,52.60
2019-05-06T15:13:56.190Z,53.70
2019-05-06T15:15:59.666Z,53.10
2019-05-06T15:18:03.570Z,51.40
2019-05-06T15:20:08.465Z,51.80
2019-05-06T15:22:12.945Z,51.10
2019-05-06T15:24:16.846Z,50.40
2019-05-06T15:26:22.388Z,49.90
2019-05-06T15:28:25.680Z,50.30
2019-05-06T15:30:34.117Z,49.50
2019-05-06T15:32:38.730Z,49.00
2019-05-06T15:34:53.806Z,49.00
2019-05-06T15:37:02.375Z,48.70
2019-05-06T15:39:05.672Z,48.30
2019-05-06T15:41:09.631Z,49.20
2019-05-06T15:43:13.329Z,50.00
2019-05-06T15:45:18.353Z,49.70
2019-05-06T15:47:23.286Z,50.50
2019-05-06T15:49:27.221Z,49.40
2019-05-06T15:51:36.944Z,49.20
2019-05-06T15:53:42.193Z,48.90
2019-05-06T15:55:46.191Z,49.30
2019-05-06T15:57:52.444Z,48.30
2019-05-06T15:59:55.381Z,49.20
2019-05-06T16:01:59.249Z,50.20
2019-05-06T16:04:03.253Z,50.90
2019-05-06T16:06:07.010Z,50.60
2019-05-06T16:08:10.839Z,50.70
2019-05-06T16:10:16.991Z,50.30
2019-05-06T16:12:22.095Z,50.00
2019-05-06T16:14:26.043Z,51.10
2019-05-06T16:16:29.569Z,52.40
2019-05-06T16:18:34.433Z,51.50
2019-05-06T16:20:38.237Z,52.00
2019-05-06T16:22:44.504Z,51.30
2019-05-06T16:24:49.909Z,51.90
2019-05-06T16:26:53.489Z,52.00
2019-05-06T16:28:57.458Z,51.70
2019-05-06T16:31:02.465Z,51.50
2019-05-06T16:33:06.108Z,52.00
2019-05-06T16:35:11.967Z,52.70
2019-05-06T16:37:16.522Z,53.70
2019-05-06T16:39:20.213Z,53.80
2019-05-06T16:41:23.754Z,52.20
2019-05-06T16:43:27.481Z,53.50
2019-05-06T16:45:32.051Z,53.90
2019-05-06T16:47:39.557Z,54.00
2019-05-06T16:49:43.409Z,53.20
2019-05-06T16:51:47.777Z,54.00
2019-05-06T16:53:52.487Z,53.40
2019-05-06T16:56:10.145Z,53.60
2019-05-06T16:58:15.323Z,53.80
2019-05-06T17:00:22.524Z,54.40
2019-05-06T17:02:27.767Z,53.70
2019-05-06T17:04:48.485Z,54.80
2019-05-06T17:06:53.621Z,55.30
2019-05-06T17:08:57.558Z,55.60
2019-05-06T17:11:04.421Z,56.20
2019-05-06T17:13:07.006Z,57.00
2019-05-06T17:15:11.085Z,56.60
2019-05-06T17:17:14.718Z,57.30
2019-05-06T17:19:18.301Z,57.90
2019-05-06T17:21:22.340Z,57.60
2019-05-06T17:23:26.433Z,57.70
2019-05-06T17:25:30.049Z,58.10
2019-05-06T17:27:35.087Z,58.90
2019-05-06T17:29:43.026Z,59.00
2019-05-06T17:31:51.542Z,59.50
2019-05-06T17:33:56.986Z,60.00
2019-05-06T17:36:02.931Z,60.60
2019-05-06T17:38:08.141Z,60.00
2019-05-06T17:40:14.298Z,60.30
2019-05-06T17:42:18.232Z,61.50
2019-05-06T17:44:23.697Z,61.50
2019-05-06T17:46:45.831Z,61.70
2019-05-06T17:48:54.427Z,62.30
2019-05-06T17:51:17.891Z,62.70
2019-05-06T17:53:22.894Z,62.80
2019-05-06T17:55:27.589Z,63.40
2019-05-06T17:57:33.110Z,63.80
2019-05-06T17:59:37.770Z,65.10
2019-05-06T18:01:43.481Z,66.50
2019-05-06T18:03:48.090Z,68.80
2019-05-06T18:05:52.630Z,70.10
2019-05-06T18:07:56.217Z,71.60
2019-05-06T18:10:00.020Z,73.80
2019-05-06T18:12:03.998Z,74.00
2019-05-06T18:14:08.078Z,75.00
2019-05-06T18:16:13.212Z,76.20
2019-05-06T18:18:17.249Z,77.50
2019-05-06T18:20:22.154Z,78.20
2019-05-06T18:22:25.732Z,78.80
2019-05-06T18:24:29.285Z,79.10
2019-05-06T18:26:33.707Z,79.50
2019-05-06T18:28:37.418Z,79.80
2019-05-06T18:30:41.321Z,80.40
2019-05-06T18:32:44.789Z,81.80
2019-05-06T18:34:48.337Z,82.40
2019-05-06T18:36:52.599Z,83.10
2019-05-06T18:38:57.090Z,84.10
2019-05-06T18:41:02.018Z,86.20
2019-05-06T18:43:07.596Z,85.10
2019-05-06T18:45:12.372Z,85.20
2019-05-06T18:47:16.252Z,86.10
2019-05-06T18:49:21.728Z,87.00
2019-05-06T18:51:26.205Z,86.00
2019-05-06T18:53:29.811Z,86.50
2019-05-06T18:55:33.763Z,86.40
2019-05-06T18:57:37.550Z,87.80
2019-05-06T18:59:42.448Z,88.00
2019-05-06T19:01:46.407Z,88.10
2019-05-06T19:04:03.273Z,90.00
2019-05-06T19:06:07.302Z,90.50
2019-05-06T19:08:24.726Z,91.40
2019-05-06T19:10:30.054Z,92.00
2019-05-06T19:12:40.522Z,92.00
2019-05-06T19:14:39.773Z,91.60
2019-05-06T19:16:49.786Z,91.20
2019-05-06T19:18:48.613Z,90.90
2019-05-06T19:20:53.129Z,90.10
2019-05-06T19:22:57.213Z,90.40
2019-05-06T19:25:02.630Z,89.50
2019-05-06T19:27:07.137Z,89.20
2019-05-06T19:29:12.317Z,89.60
2019-05-06T19:31:16.193Z,90.20
2019-05-06T19:33:19.809Z,89.50
2019-05-06T19:35:23.695Z,90.20
2019-05-06T19:37:27.937Z,90.00
2019-05-06T19:39:33.027Z,90.60
2019-05-06T19:41:38.566Z,91.00
2019-05-06T19:43:42.235Z,90.90
2019-05-06T19:45:46.099Z,91.50
2019-05-06T19:47:52.257Z,91.70
2019-05-06T19:49:56.185Z,92.30
2019-05-06T19:51:59.797Z,92.80
2019-05-06T19:54:03.480Z,94.30
2019-05-06T19:56:07.191Z,94.00
2019-05-06T19:58:12.890Z,94.70
2019-05-06T20:00:17.237Z,95.30
2019-05-06T20:02:23.456Z,95.20
2019-05-06T20:04:26.576Z,95.20
2019-05-06T20:06:34.777Z,96.60
2019-05-06T20:08:41.714Z,97.00
2019-05-06T20:10:52.852Z,97.90
2019-05-06T20:13:02.614Z,98.70
2019-05-06T20:15:26.258Z,99.40
2019-05-06T20:17:30.132Z,99.90
2019-05-06T20:19:34.550Z,99.90
2019-05-06T20:21:38.461Z,99.90
2019-05-06T20:23:42.577Z,99.90
2019-05-06T20:25:46.230Z,99.90
2019-05-06T20:27:52.503Z,99.90
2019-05-06T20:29:55.393Z,99.90
2019-05-06T20:31:59.902Z,99.90
2019-05-06T20:34:03.730Z,99.90
2019-05-06T20:36:07.358Z,99.90
2019-05-06T20:38:12.308Z,99.90
2019-05-06T20:40:16.590Z,99.90
2019-05-06T20:42:22.256Z,99.90
2019-05-06T20:44:25.817Z,99.90
2019-05-06T20:46:29.569Z,99.90
2019-05-06T20:48:33.123Z,99.90
2019-05-06T20:50:37.012Z,99.90
2019-05-06T20:52:42.467Z,99.90
2019-05-06T20:54:46.141Z,99.90
2019-05-06T20:56:49.793Z,99.90
2019-05-06T20:58:53.262Z,99.90
2019-05-06T21:00:57.047Z,99.90
2019-05-06T21:03:00.954Z,99.90
2019-05-06T21:05:10.656Z,99.90
2019-05-06T21:07:13.519Z,99.90
2019-05-06T21:09:17.062Z,99.90
2019-05-06T21:11:26.521Z,99.90
2019-05-06T21:13:31.445Z,99.90
2019-05-06T21:15:32.377Z,99.90
2019-05-06T21:17:36.303Z,99.90
2019-05-06T21:19:39.856Z,99.90
2019-05-06T21:21:43.671Z,99.90
2019-05-06T21:23:48.271Z,99.90
2019-05-06T21:25:52.456Z,99.90
2019-05-06T21:27:56.150Z,99.90
2019-05-06T21:29:59.684Z,99.90
2019-05-06T21:32:03.145Z,99.90
2019-05-06T21:34:07.002Z,99.90
2019-05-06T21:36:12.401Z,99.90
2019-05-06T21:38:15.742Z,99.90
2019-05-06T21:40:19.569Z,99.90
2019-05-06T21:42:24.112Z,99.90
2019-05-06T21:44:27.802Z,99.90
2019-05-06T21:46:31.930Z,99.90
2019-05-06T21:48:35.582Z,99.90
2019-05-06T21:50:39.205Z,99.90
2019-05-06T21:52:43.273Z,99.90
2019-05-06T21:54:47.029Z,99.90
2019-05-06T21:56:50.488Z,99.90
2019-05-06T21:58:54.267Z,99.90
2019-05-06T22:01:02.139Z,99.90
2019-05-06T22:03:05.633Z,99.90
2019-05-06T22:05:09.513Z,99.90
2019-05-06T22:07:13.471Z,99.90
2019-05-06T22:09:17.176Z,99.90
2019-05-06T22:11:24.288Z,99.90
2019-05-06T22:13:25.919Z,99.90
2019-05-06T22:15:29.428Z,99.90
2019-05-06T22:17:32.957Z,99.90
2019-05-06T22:19:36.902Z,99.90
2019-05-06T22:21:42.594Z,99.90
2019-05-06T22:24:04.236Z,99.90
2019-05-06T22:26:12.976Z,99.90
2019-05-06T22:28:11.994Z,99.90
2019-05-06T22:30:15.965Z,99.90
2019-05-06T22:32:19.431Z,99.90
2019-05-06T22:34:23.277Z,99.90
2019-05-06T22:36:27.285Z,99.90
2019-05-06T22:38:30.813Z,99.90
2019-05-06T22:40:34.686Z,99.90
2019-05-06T22:42:38.590Z,99.90
2019-05-06T22:44:42.894Z,99.90
2019-05-06T22:46:47.118Z,99.90
2019-05-06T22:48:54.077Z,99.90
2019-05-06T22:50:56.757Z,99.90
2019-05-06T22:53:02.326Z,99.90
2019-05-06T22:55:07.248Z,99.90
2019-05-06T22:57:12.036Z,99.90
2019-05-06T22:59:15.689Z,99.90
2019-05-06T23:01:33.089Z,99.90
2019-05-06T23:03:36.873Z,99.90
2019-05-06T23:05:42.339Z,99.90
2019-05-06T23:07:45.757Z,99.90
2019-05-06T23:09:49.219Z,99.90
2019-05-06T23:11:53.329Z,99.90
2019-05-06T23:13:56.897Z,99.90
2019-05-06T23:16:02.036Z,99.90
2019-05-06T23:18:05.923Z,99.90
2019-05-06T23:20:09.777Z,99.90
2019-05-06T23:22:13.709Z,99.90
2019-05-06T23:24:17.573Z,99.90
2019-05-06T23:26:22.990Z,99.90
2019-05-06T23:28:26.521Z,99.90
2019-05-06T23:30:33.256Z,99.90
2019-05-06T23:32:36.231Z,99.90
2019-05-06T23:34:39.690Z,99.90
2019-05-06T23:37:02.741Z,99.90
2019-05-06T23:39:45.353Z,99.90
2019-05-06T23:42:25.761Z,99.90
2019-05-06T23:45:05.874Z,99.90
2019-05-06T23:47:45.921Z,99.90
2019-05-06T23:50:26.384Z,99.90
2019-05-06T23:53:06.505Z,99.90
2019-05-06T23:55:46.497Z,99.90
2019-05-06T23:57:49.317Z,99.90
2019-05-06T23:59:54.626Z,99.90
